Aboyne, United Kingdom
Current Conditions -  °F | °C
As of 4:20 AM on Friday 28 Nov 2014 (Local Time) from EGPD Reporting Station
Scattered Clouds Scattered Clouds  
Wind Chill: 11°   Ceiling: Unl
Heat Index: 11°   Visibility: 5mi
Dew Point: 10°   Wind: 13mph
Humidity: 94%   Direction: 140°SE
Pressure: 29.71"   Gusts: NA
Location:  57.08°N, 2.78°W
Report Text: EGPD 280420Z AUTO 14011KT 8000 SCT007/// SCT014/// 11/10 Q1006
Loading
Personal Weather Stations






























Interactive Weather Map New forecast layout! Learn more

10-Day Weather Forecast

Advertisements
Track Severe Weather on mobile